首页
METAR-TAF:

METAR-TAF

机场 :

约恩苏机场

约恩苏, 芬兰

纬度: 62-40N, 经度: 029-38E, 海拔: 119米

当前天气观测

该预报发布于37分钟前的21:20 UTC
风速1节,风向东北
温度 -11°C
湿度 92%
气压 1002 hPa
能见度10公里或以上
1500米以下无云,无积雨云

METAR: EFJO 272120Z 05001KT CAVOK M11/M12 Q1002

时间: 23:57 (21:57 UTC)

预报

该预报发布于1小时和32分钟前的20:25 UTC
预报有效从27日的 21点(UTC)到 27日的 23点(UTC)
风速4节,风向东北
能见度10公里或以上
1500米以下无云,无积雨云

TAF: EFJO 272025Z 2721/2723 05004KT CAVOK

超过4000个机场的气象观测和天气预报(METAR&TAF报告)。

可查询的气象台以黄色和红色小点在地图上表示。

将鼠标移到小点上方,可查看气象台名称。

然后点击查看天气观测和预报。

如需切换地图:点击带黑十字的绿色按钮放大地图;点击带横线的绿色按钮缩小地图;或者点击绿色箭头查看邻近地区的地图。


METAR-TAF: